createdAt,value
2018-08-09T00:00:44.049Z,99.90
2018-08-09T00:03:10.154Z,99.90
2018-08-09T00:05:36.838Z,99.90
2018-08-09T00:08:02.785Z,99.90
2018-08-09T00:10:28.758Z,99.90
2018-08-09T00:12:54.710Z,99.90
2018-08-09T00:15:20.701Z,99.90
2018-08-09T00:17:46.643Z,99.90
2018-08-09T00:20:12.618Z,99.90
2018-08-09T00:22:39.312Z,99.90
2018-08-09T00:25:05.262Z,99.90
2018-08-09T00:27:31.234Z,99.90
2018-08-09T00:29:57.185Z,99.90
2018-08-09T00:32:23.169Z,99.90
2018-08-09T00:34:49.124Z,99.90
2018-08-09T00:37:15.090Z,99.90
2018-08-09T00:39:41.792Z,99.90
2018-08-09T00:42:07.767Z,99.90
2018-08-09T00:44:33.747Z,99.90
2018-08-09T00:46:59.707Z,99.90
2018-08-09T00:49:26.414Z,99.90
2018-08-09T00:51:52.373Z,99.90
2018-08-09T00:54:19.086Z,99.90
2018-08-09T00:56:45.041Z,99.90
2018-08-09T00:59:11.033Z,99.90
2018-08-09T01:01:37.757Z,99.90
2018-08-09T01:04:03.748Z,99.90
2018-08-09T01:06:29.822Z,99.90
2018-08-09T01:08:55.770Z,99.90
2018-08-09T01:11:21.769Z,99.90
2018-08-09T01:13:47.730Z,99.90
2018-08-09T01:16:13.688Z,99.90
2018-08-09T01:18:39.670Z,99.90
2018-08-09T01:21:05.638Z,99.90
2018-08-09T01:23:31.646Z,99.90
2018-08-09T01:25:57.616Z,99.90
2018-08-09T01:28:24.349Z,99.90
2018-08-09T01:30:50.324Z,99.90
2018-08-09T01:33:16.301Z,99.90
2018-08-09T01:35:42.277Z,99.90
2018-08-09T01:38:08.234Z,99.90
2018-08-09T01:40:34.242Z,99.90
2018-08-09T01:43:00.185Z,99.90
2018-08-09T01:45:26.185Z,99.90
2018-08-09T01:47:52.142Z,99.90
2018-08-09T01:50:18.855Z,99.90
2018-08-09T01:52:44.785Z,99.90
2018-08-09T01:55:10.775Z,99.90
2018-08-09T01:57:36.731Z,99.90
2018-08-09T02:00:02.701Z,99.90
2018-08-09T02:02:28.659Z,99.90
2018-08-09T02:04:54.706Z,99.90
2018-08-09T02:07:20.624Z,99.90
2018-08-09T02:09:46.570Z,99.90
2018-08-09T02:12:13.470Z,99.90
2018-08-09T02:14:39.476Z,99.90
2018-08-09T02:17:05.434Z,99.90
2018-08-09T02:19:31.377Z,99.90
2018-08-09T02:21:57.354Z,99.90
2018-08-09T02:24:23.317Z,99.90
2018-08-09T02:26:49.290Z,99.90
2018-08-09T02:29:15.264Z,99.90
2018-08-09T02:31:41.209Z,99.90
2018-08-09T02:34:07.927Z,99.90
2018-08-09T02:36:33.863Z,99.90
2018-08-09T02:39:00.582Z,99.90
2018-08-09T02:41:26.541Z,99.90
2018-08-09T02:43:52.525Z,99.90
2018-08-09T02:46:18.486Z,99.90
2018-08-09T02:48:44.488Z,99.90
2018-08-09T02:51:11.192Z,99.90
2018-08-09T02:53:37.197Z,99.90
2018-08-09T02:56:03.166Z,99.90
2018-08-09T02:58:29.106Z,99.90
2018-08-09T03:00:55.830Z,99.90
2018-08-09T03:03:21.790Z,99.90
2018-08-09T03:05:47.763Z,99.90
2018-08-09T03:08:14.464Z,99.90
2018-08-09T03:10:40.445Z,99.90
2018-08-09T03:13:07.156Z,99.90
2018-08-09T03:15:33.157Z,99.90
2018-08-09T03:17:59.120Z,99.90
2018-08-09T03:20:25.097Z,99.90
2018-08-09T03:22:51.048Z,99.90
2018-08-09T03:25:17.047Z,99.90
2018-08-09T03:27:42.986Z,99.90
2018-08-09T03:30:08.960Z,99.90
2018-08-09T03:32:35.676Z,99.90
2018-08-09T03:35:01.625Z,99.90
2018-08-09T03:37:27.613Z,99.90
2018-08-09T03:39:53.570Z,99.90
2018-08-09T03:42:20.299Z,99.90
2018-08-09T03:44:46.995Z,99.90
2018-08-09T03:47:12.939Z,99.90
2018-08-09T03:49:38.913Z,99.90
2018-08-09T03:52:05.616Z,99.90
2018-08-09T03:54:32.329Z,99.90
2018-08-09T03:56:58.296Z,99.90
2018-08-09T03:59:25.007Z,99.90
2018-08-09T04:01:51.721Z,99.90
2018-08-09T04:04:17.703Z,99.90
2018-08-09T04:06:43.681Z,99.90
2018-08-09T04:09:09.674Z,99.90
2018-08-09T04:11:35.647Z,99.90
2018-08-09T04:14:02.405Z,99.90
2018-08-09T04:16:29.102Z,99.90
2018-08-09T04:18:55.096Z,99.90
2018-08-09T04:21:21.064Z,99.90
2018-08-09T04:23:47.024Z,99.90
2018-08-09T04:26:12.995Z,99.90
2018-08-09T04:28:38.964Z,99.90
2018-08-09T04:31:05.684Z,99.90
2018-08-09T04:33:31.620Z,99.90
2018-08-09T04:35:58.344Z,99.90
2018-08-09T04:38:24.313Z,99.90
2018-08-09T04:40:50.299Z,99.90
2018-08-09T04:43:16.992Z,99.90
2018-08-09T04:45:43.728Z,99.90
2018-08-09T04:48:09.823Z,99.90
2018-08-09T04:50:35.791Z,99.90
2018-08-09T04:53:01.792Z,99.90
2018-08-09T04:55:27.767Z,99.90
2018-08-09T04:57:54.488Z,99.90
2018-08-09T05:00:20.447Z,99.90
2018-08-09T05:02:46.441Z,99.90
2018-08-09T05:05:12.391Z,99.90
2018-08-09T05:07:39.112Z,99.90
2018-08-09T05:10:05.807Z,99.90
2018-08-09T05:12:31.741Z,99.90
2018-08-09T05:14:57.711Z,99.90
2018-08-09T05:17:23.693Z,99.90
2018-08-09T05:19:49.679Z,99.90
2018-08-09T05:22:15.679Z,99.90
2018-08-09T05:24:42.433Z,99.90
2018-08-09T05:27:08.386Z,99.90
2018-08-09T05:29:34.372Z,99.90
2018-08-09T05:32:00.361Z,99.90
2018-08-09T05:34:26.305Z,99.90
2018-08-09T05:36:53.013Z,99.90
2018-08-09T05:39:18.958Z,99.90
2018-08-09T05:41:44.916Z,99.90
2018-08-09T05:44:10.862Z,99.90
2018-08-09T05:46:36.862Z,99.90
2018-08-09T05:49:02.833Z,99.90
2018-08-09T05:51:28.797Z,99.90
2018-08-09T05:53:55.512Z,99.90
2018-08-09T05:56:21.493Z,99.90
2018-08-09T05:58:47.528Z,99.90
2018-08-09T06:01:13.504Z,99.90
2018-08-09T06:03:39.481Z,99.90
2018-08-09T06:06:05.426Z,99.90
2018-08-09T06:08:31.442Z,99.90
2018-08-09T06:10:57.399Z,99.90
2018-08-09T06:13:23.420Z,99.90
2018-08-09T06:15:49.383Z,99.90
2018-08-09T06:18:15.339Z,99.90
2018-08-09T06:20:41.321Z,99.90
2018-08-09T06:23:07.294Z,99.90
2018-08-09T06:25:33.260Z,99.90
2018-08-09T06:27:59.199Z,99.90
2018-08-09T06:30:25.181Z,99.90
2018-08-09T06:32:51.141Z,99.90
2018-08-09T06:35:17.130Z,99.90
2018-08-09T06:37:43.098Z,99.90
2018-08-09T06:40:09.053Z,99.90
2018-08-09T06:42:35.779Z,99.90
2018-08-09T06:45:01.735Z,99.90
2018-08-09T06:47:27.741Z,99.90
2018-08-09T06:49:54.453Z,99.90
2018-08-09T06:52:20.454Z,99.90
2018-08-09T06:54:46.405Z,99.80
2018-08-09T06:57:12.338Z,99.10
2018-08-09T06:59:39.086Z,95.70
2018-08-09T07:02:05.818Z,93.80
2018-08-09T07:04:31.800Z,93.80
2018-08-09T07:06:57.802Z,93.60
2018-08-09T07:09:24.501Z,92.10
2018-08-09T07:11:51.240Z,92.20
2018-08-09T07:14:17.249Z,92.10
2018-08-09T07:16:43.213Z,90.60
2018-08-09T07:19:09.939Z,89.50
2018-08-09T07:21:36.675Z,87.90
2018-08-09T07:24:02.638Z,87.90
2018-08-09T07:26:28.656Z,86.00
2018-08-09T07:28:54.627Z,84.80
2018-08-09T07:31:20.621Z,87.40
2018-08-09T07:33:46.630Z,89.50
2018-08-09T07:36:13.326Z,91.60
2018-08-09T07:38:39.282Z,91.60
2018-08-09T07:41:05.250Z,91.70
2018-08-09T07:43:31.269Z,91.50
2018-08-09T07:45:57.217Z,91.70
2018-08-09T07:48:24.012Z,88.90
2018-08-09T07:50:50.694Z,85.90
2018-08-09T07:53:16.705Z,85.90
2018-08-09T07:55:42.652Z,84.30
2018-08-09T07:58:08.622Z,80.80
2018-08-09T08:00:34.600Z,80.40
2018-08-09T08:03:00.570Z,76.60
2018-08-09T08:05:26.575Z,76.10
2018-08-09T08:07:52.557Z,75.10
2018-08-09T08:10:18.552Z,72.60
2018-08-09T08:12:44.489Z,70.90
2018-08-09T08:15:10.523Z,69.20
2018-08-09T08:17:36.456Z,69.20
2018-08-09T08:20:02.424Z,67.90
2018-08-09T08:22:28.460Z,64.50
2018-08-09T08:24:54.399Z,64.30
2018-08-09T08:27:20.396Z,65.20
2018-08-09T08:29:53.346Z,65.40
2018-08-09T08:32:20.093Z,64.60
2018-08-09T08:34:46.807Z,64.10
2018-08-09T08:37:12.829Z,64.00
2018-08-09T08:39:38.811Z,61.80
2018-08-09T08:42:04.765Z,64.20
2018-08-09T08:44:30.770Z,64.60
2018-08-09T08:46:56.726Z,60.50
2018-08-09T08:49:22.729Z,60.90
2018-08-09T08:51:48.707Z,60.90
2018-08-09T08:54:15.429Z,58.90
2018-08-09T08:56:41.374Z,58.80
2018-08-09T08:59:08.067Z,58.10
2018-08-09T09:01:34.041Z,58.10
2018-08-09T09:04:00.045Z,58.30
2018-08-09T09:06:26.773Z,56.20
2018-08-09T09:08:52.745Z,56.10
2018-08-09T09:11:18.725Z,58.80
2018-08-09T09:13:44.732Z,57.60
2018-08-09T09:16:10.697Z,57.40
2018-08-09T09:18:36.639Z,56.30
2018-08-09T09:21:02.633Z,56.30
2018-08-09T09:23:28.610Z,54.50
2018-08-09T09:25:54.601Z,54.70
2018-08-09T09:28:20.564Z,54.80
2018-08-09T09:30:46.573Z,54.30
2018-08-09T09:33:12.525Z,53.80
2018-08-09T09:35:39.264Z,53.70
2018-08-09T09:38:05.990Z,53.90
2018-08-09T09:40:31.991Z,53.90
2018-08-09T09:42:57.977Z,55.40
2018-08-09T09:45:24.684Z,54.10
2018-08-09T09:47:50.671Z,54.00
2018-08-09T09:50:16.665Z,52.70
2018-08-09T09:52:42.678Z,54.30
2018-08-09T09:55:08.666Z,53.60
2018-08-09T09:57:34.669Z,54.80
2018-08-09T10:00:00.655Z,54.90
2018-08-09T10:02:27.460Z,56.70
2018-08-09T10:04:53.433Z,56.60
2018-08-09T10:07:19.430Z,55.00
2018-08-09T10:09:46.173Z,52.90
2018-08-09T10:12:12.888Z,54.30
2018-08-09T10:14:39.678Z,54.10
2018-08-09T10:17:05.656Z,54.10
2018-08-09T10:19:32.442Z,54.50
2018-08-09T10:21:58.422Z,54.40
2018-08-09T10:24:25.184Z,56.30
2018-08-09T10:26:51.915Z,56.60
2018-08-09T10:29:17.854Z,56.60
2018-08-09T10:31:44.581Z,55.20
2018-08-09T10:34:11.314Z,55.40
2018-08-09T10:36:37.365Z,55.40
2018-08-09T10:39:03.376Z,56.10
2018-08-09T10:41:29.347Z,54.70
2018-08-09T10:43:55.328Z,54.20
2018-08-09T10:46:21.314Z,54.30
2018-08-09T10:48:47.283Z,55.40
2018-08-09T10:51:14.029Z,55.10
2018-08-09T10:53:39.990Z,55.00
2018-08-09T10:56:05.950Z,55.00
2018-08-09T10:58:32.707Z,57.10
2018-08-09T11:00:59.417Z,55.80
2018-08-09T11:03:25.422Z,55.80
2018-08-09T11:05:51.412Z,56.60
2018-08-09T11:08:17.395Z,54.10
2018-08-09T11:10:43.336Z,53.80
2018-08-09T11:13:10.073Z,54.40
2018-08-09T11:15:36.786Z,54.50
2018-08-09T11:18:02.717Z,54.50
2018-08-09T11:20:28.697Z,54.90
2018-08-09T11:22:54.695Z,55.90
2018-08-09T11:25:20.694Z,55.20
2018-08-09T11:27:46.651Z,54.10
2018-08-09T11:30:12.631Z,52.60
2018-08-09T11:32:38.603Z,54.90
2018-08-09T11:35:04.632Z,56.10
2018-08-09T11:37:30.603Z,54.00
2018-08-09T11:39:56.604Z,56.20
2018-08-09T11:42:22.597Z,54.70
2018-08-09T11:44:48.558Z,55.60
2018-08-09T11:47:14.540Z,56.10
2018-08-09T11:49:40.542Z,57.10
2018-08-09T11:52:07.269Z,59.40
2018-08-09T11:54:33.264Z,59.40
2018-08-09T11:56:59.331Z,58.80
2018-08-09T11:59:25.300Z,59.70
2018-08-09T12:01:51.340Z,60.40
2018-08-09T12:04:17.321Z,60.70
2018-08-09T12:06:43.288Z,61.50
2018-08-09T12:09:09.302Z,62.80
2018-08-09T12:11:35.286Z,63.10
2018-08-09T12:14:01.290Z,63.50
2018-08-09T12:16:27.996Z,71.40
2018-08-09T12:18:54.011Z,71.40
2018-08-09T12:21:19.991Z,72.80
2018-08-09T12:23:46.735Z,86.70
2018-08-09T12:26:13.435Z,90.00
2018-08-09T12:28:40.203Z,94.90
2018-08-09T12:31:06.918Z,98.60
2018-08-09T12:33:32.862Z,98.40
2018-08-09T12:35:58.853Z,99.90
2018-08-09T12:38:24.822Z,99.90
2018-08-09T12:40:50.798Z,99.90
2018-08-09T12:43:16.745Z,99.90
2018-08-09T12:45:43.535Z,99.90
2018-08-09T12:48:10.221Z,99.90
2018-08-09T12:50:36.193Z,99.90
2018-08-09T12:53:02.145Z,99.90
2018-08-09T12:55:28.165Z,99.90
2018-08-09T12:57:54.129Z,99.90
2018-08-09T13:00:20.867Z,99.90
2018-08-09T13:02:46.845Z,99.90
2018-08-09T13:05:12.811Z,99.90
2018-08-09T13:07:38.847Z,99.90
2018-08-09T13:10:05.574Z,99.90
2018-08-09T13:12:31.542Z,99.90
2018-08-09T13:14:57.509Z,99.90
2018-08-09T13:17:23.469Z,99.90
2018-08-09T13:19:49.462Z,99.90
2018-08-09T13:22:15.425Z,99.90
2018-08-09T13:24:41.408Z,99.90
2018-08-09T13:27:07.352Z,99.90
2018-08-09T13:29:33.314Z,99.90
2018-08-09T13:31:59.275Z,99.90
2018-08-09T13:34:26.004Z,99.90
2018-08-09T13:36:52.726Z,99.90
2018-08-09T13:39:18.706Z,99.90
2018-08-09T13:41:44.656Z,99.90
2018-08-09T13:44:10.600Z,99.90
2018-08-09T13:46:36.585Z,99.90
2018-08-09T13:49:02.533Z,99.90
2018-08-09T13:51:28.520Z,99.90
2018-08-09T13:53:54.469Z,99.90
2018-08-09T13:56:20.455Z,99.90
2018-08-09T13:58:47.166Z,99.90
2018-08-09T14:01:13.158Z,99.90
2018-08-09T14:03:39.120Z,99.90
2018-08-09T14:06:05.094Z,99.90
2018-08-09T14:08:31.058Z,99.90
2018-08-09T14:10:57.029Z,99.90
2018-08-09T14:13:22.995Z,99.90
2018-08-09T14:15:48.963Z,99.90
2018-08-09T14:18:14.975Z,99.90
2018-08-09T14:20:41.696Z,99.90
2018-08-09T14:23:07.676Z,99.90
2018-08-09T14:25:33.667Z,99.90
2018-08-09T14:27:59.674Z,99.90
2018-08-09T14:30:25.620Z,99.90
2018-08-09T14:32:52.341Z,99.90
2018-08-09T14:35:18.322Z,99.90
2018-08-09T14:37:44.313Z,99.90
2018-08-09T14:40:10.337Z,99.90
2018-08-09T14:42:36.339Z,99.90
2018-08-09T14:45:02.288Z,99.90
2018-08-09T14:47:28.240Z,99.90
2018-08-09T14:49:54.231Z,99.90
2018-08-09T14:52:20.204Z,99.90
2018-08-09T14:54:46.219Z,99.90
2018-08-09T14:57:12.190Z,99.90
2018-08-09T14:59:38.185Z,99.90
2018-08-09T15:02:04.928Z,99.90
2018-08-09T15:04:30.897Z,99.90
2018-08-09T15:06:56.901Z,99.90
2018-08-09T15:09:23.619Z,99.90
2018-08-09T15:11:49.591Z,99.90
2018-08-09T15:14:15.535Z,99.90
2018-08-09T15:16:41.500Z,99.90
2018-08-09T15:19:08.213Z,99.90
2018-08-09T15:21:34.167Z,99.90
2018-08-09T15:24:00.890Z,99.90
2018-08-09T15:26:27.604Z,99.90
2018-08-09T15:28:53.589Z,99.90
2018-08-09T15:31:19.543Z,99.90
2018-08-09T15:33:45.563Z,99.90
2018-08-09T15:36:11.524Z,99.90
2018-08-09T15:38:38.227Z,99.90
2018-08-09T15:41:04.211Z,99.90
2018-08-09T15:43:30.177Z,99.90
2018-08-09T15:45:56.177Z,99.90
2018-08-09T15:48:22.134Z,99.90
2018-08-09T15:50:48.133Z,99.90
2018-08-09T15:53:14.079Z,99.90
2018-08-09T15:55:40.025Z,99.90
2018-08-09T15:58:06.003Z,99.90
2018-08-09T16:00:31.988Z,99.90
2018-08-09T16:02:57.987Z,99.90
2018-08-09T16:05:23.934Z,99.90
2018-08-09T16:07:49.887Z,99.90
2018-08-09T16:10:15.849Z,99.90
2018-08-09T16:12:41.794Z,99.90
2018-08-09T16:15:07.781Z,99.90
2018-08-09T16:17:33.726Z,99.90
2018-08-09T16:19:59.688Z,99.90
2018-08-09T16:22:25.653Z,99.90
2018-08-09T16:24:51.656Z,99.90
2018-08-09T16:27:17.634Z,99.90
2018-08-09T16:29:43.649Z,99.90
2018-08-09T16:32:10.359Z,99.90
2018-08-09T16:34:36.364Z,99.90
2018-08-09T16:37:02.341Z,99.90
2018-08-09T16:39:29.081Z,99.90
2018-08-09T16:41:55.781Z,99.90
2018-08-09T16:44:21.763Z,99.90
2018-08-09T16:46:47.766Z,99.90
2018-08-09T16:49:14.481Z,99.90
2018-08-09T16:51:40.478Z,99.90
2018-08-09T16:54:06.457Z,99.90
2018-08-09T16:56:33.229Z,99.90
2018-08-09T16:58:59.873Z,99.90
2018-08-09T17:01:25.875Z,99.90
2018-08-09T17:03:51.834Z,99.90
2018-08-09T17:06:17.831Z,99.90
2018-08-09T17:08:43.829Z,99.90
2018-08-09T17:11:10.521Z,99.90
2018-08-09T17:13:36.541Z,99.90
2018-08-09T17:16:02.516Z,99.90
2018-08-09T17:18:29.273Z,99.90
2018-08-09T17:20:55.229Z,99.90
2018-08-09T17:23:21.238Z,99.90
2018-08-09T17:25:47.214Z,99.90
2018-08-09T17:28:13.249Z,99.90
2018-08-09T17:30:39.967Z,99.90
2018-08-09T17:33:05.930Z,99.90
2018-08-09T17:35:31.920Z,99.90
2018-08-09T17:37:57.903Z,99.90
2018-08-09T17:40:23.890Z,99.90
2018-08-09T17:42:50.616Z,99.90
2018-08-09T17:45:16.606Z,99.90
2018-08-09T17:47:42.568Z,99.90
2018-08-09T17:50:09.274Z,99.90
2018-08-09T17:52:35.317Z,99.90
2018-08-09T17:55:01.313Z,99.90
2018-08-09T17:57:27.297Z,99.90
2018-08-09T17:59:53.278Z,99.90
2018-08-09T18:02:19.276Z,99.90
2018-08-09T18:04:45.248Z,99.90
2018-08-09T18:07:11.213Z,99.90
2018-08-09T18:09:37.191Z,99.90
2018-08-09T18:12:03.217Z,99.90
2018-08-09T18:14:29.213Z,99.90
2018-08-09T18:16:55.190Z,99.90
2018-08-09T18:19:21.204Z,99.90
2018-08-09T18:21:47.175Z,99.90
2018-08-09T18:24:13.188Z,99.90
2018-08-09T18:26:39.895Z,99.90
2018-08-09T18:29:05.884Z,99.90
2018-08-09T18:31:31.872Z,99.90
2018-08-09T18:33:57.846Z,99.90
2018-08-09T18:36:23.828Z,99.90
2018-08-09T18:38:50.534Z,99.90
2018-08-09T18:41:16.517Z,99.90
2018-08-09T18:43:42.472Z,99.90
2018-08-09T18:46:08.494Z,99.90
2018-08-09T18:48:35.206Z,99.90
2018-08-09T18:51:01.196Z,99.90
2018-08-09T18:53:27.167Z,99.90
2018-08-09T18:55:53.165Z,99.90
2018-08-09T18:58:19.203Z,99.90
2018-08-09T19:00:45.217Z,99.90
2018-08-09T19:03:11.188Z,99.90
2018-08-09T19:05:37.150Z,99.90
2018-08-09T19:08:03.133Z,99.90
2018-08-09T19:10:29.172Z,99.90
2018-08-09T19:12:55.177Z,99.90
2018-08-09T19:15:21.143Z,99.90
2018-08-09T19:17:47.138Z,99.90
2018-08-09T19:20:13.153Z,99.90
2018-08-09T19:22:39.121Z,99.90
2018-08-09T19:25:05.053Z,99.90
2018-08-09T19:27:31.091Z,99.90
2018-08-09T19:29:57.045Z,99.90
2018-08-09T19:32:26.458Z,99.90
2018-08-09T19:34:52.443Z,99.90
2018-08-09T19:37:18.450Z,99.90
2018-08-09T19:39:45.203Z,99.90
2018-08-09T19:42:11.931Z,99.90
2018-08-09T19:44:38.674Z,99.90
2018-08-09T19:47:04.710Z,99.90
2018-08-09T19:49:30.682Z,99.90
2018-08-09T19:51:56.662Z,99.90
2018-08-09T19:54:22.680Z,99.90
2018-08-09T19:56:49.368Z,99.90
2018-08-09T19:59:15.329Z,99.90
2018-08-09T20:01:42.037Z,99.90
2018-08-09T20:04:07.984Z,99.90
2018-08-09T20:06:34.752Z,99.90
2018-08-09T20:09:01.471Z,99.90
2018-08-09T20:11:27.518Z,99.90
2018-08-09T20:13:54.231Z,99.90
2018-08-09T20:16:20.266Z,99.90
2018-08-09T20:18:46.982Z,99.90
2018-08-09T20:21:13.002Z,99.90
2018-08-09T20:23:39.038Z,99.90
2018-08-09T20:26:05.006Z,99.90
2018-08-09T20:28:30.995Z,99.90
2018-08-09T20:30:56.947Z,99.90
2018-08-09T20:33:23.695Z,99.90
2018-08-09T20:35:49.649Z,99.90
2018-08-09T20:38:18.487Z,99.90
2018-08-09T20:40:44.597Z,99.90
2018-08-09T20:43:11.222Z,99.90
2018-08-09T20:45:39.067Z,99.90
2018-08-09T20:48:05.160Z,99.90
2018-08-09T20:50:31.290Z,99.90
2018-08-09T20:52:58.110Z,99.90
2018-08-09T20:55:24.186Z,99.90
2018-08-09T20:57:51.874Z,99.90
2018-08-09T21:00:17.995Z,99.90
2018-08-09T21:02:44.070Z,99.90
2018-08-09T21:05:10.792Z,99.90
2018-08-09T21:07:36.786Z,99.90
2018-08-09T21:10:03.426Z,99.90
2018-08-09T21:12:30.167Z,99.90
2018-08-09T21:14:56.173Z,99.90
2018-08-09T21:17:22.159Z,99.90
2018-08-09T21:19:48.135Z,99.90
2018-08-09T21:22:14.878Z,99.90
2018-08-09T21:24:40.865Z,99.90
2018-08-09T21:27:06.968Z,99.90
2018-08-09T21:29:33.008Z,99.90
2018-08-09T21:31:59.732Z,99.90
2018-08-09T21:34:25.731Z,99.90
2018-08-09T21:36:51.697Z,99.90
2018-08-09T21:39:18.457Z,99.90
2018-08-09T21:41:45.086Z,99.90
2018-08-09T21:44:11.141Z,99.90
2018-08-09T21:46:37.142Z,99.90
2018-08-09T21:49:03.865Z,99.90
2018-08-09T21:51:29.807Z,99.90
2018-08-09T21:53:55.751Z,99.90
2018-08-09T21:56:21.749Z,99.90
2018-08-09T21:58:48.432Z,99.90
2018-08-09T22:01:14.431Z,99.90
2018-08-09T22:03:40.390Z,99.90
2018-08-09T22:06:06.400Z,99.90
2018-08-09T22:08:32.380Z,99.90
2018-08-09T22:10:58.390Z,99.90
2018-08-09T22:13:24.387Z,99.90
2018-08-09T22:15:50.349Z,99.90
2018-08-09T22:18:16.364Z,99.90
2018-08-09T22:20:43.096Z,99.90
2018-08-09T22:23:09.828Z,99.90
2018-08-09T22:25:36.525Z,99.90
2018-08-09T22:28:02.523Z,99.90
2018-08-09T22:30:28.495Z,99.90
2018-08-09T22:32:54.515Z,99.90
2018-08-09T22:35:20.501Z,99.90
2018-08-09T22:37:46.461Z,99.90
2018-08-09T22:40:12.488Z,99.90
2018-08-09T22:42:38.446Z,99.90
2018-08-09T22:45:05.192Z,99.90
2018-08-09T22:47:31.896Z,99.90
2018-08-09T22:49:57.892Z,99.90
2018-08-09T22:52:23.887Z,99.90
2018-08-09T22:54:49.910Z,99.90
2018-08-09T22:57:16.624Z,99.90
2018-08-09T22:59:43.384Z,99.90
2018-08-09T23:02:09.402Z,99.90
2018-08-09T23:04:36.109Z,99.90
2018-08-09T23:07:02.091Z,99.90
2018-08-09T23:09:28.054Z,99.90
2018-08-09T23:11:54.048Z,99.90
2018-08-09T23:14:20.031Z,99.90
2018-08-09T23:16:46.020Z,99.90
2018-08-09T23:19:11.958Z,99.90
2018-08-09T23:21:37.961Z,99.90
2018-08-09T23:24:03.916Z,99.90
2018-08-09T23:26:30.641Z,99.90
2018-08-09T23:28:56.657Z,99.90
2018-08-09T23:31:22.614Z,99.90
2018-08-09T23:33:49.341Z,99.90
2018-08-09T23:36:16.080Z,99.90
2018-08-09T23:38:42.811Z,99.90
2018-08-09T23:41:08.773Z,99.90
2018-08-09T23:43:34.769Z,99.90
2018-08-09T23:46:00.739Z,99.90
2018-08-09T23:48:26.722Z,99.90
2018-08-09T23:50:53.453Z,99.90
2018-08-09T23:53:19.436Z,99.90
2018-08-09T23:55:45.447Z,99.90
2018-08-09T23:58:11.421Z,99.90
